Cropwell, Alabama
Current Conditions -  °F | °C
As of 10:15 AM on Wednesday 28 Jan 2015 (Local Time) from KASN Reporting Station
Clear Clear  
Wind Chill: 41°   Ceiling: Unl
Heat Index: 44°   Visibility: 10mi
Dew Point: 29°   Wind: 5mph
Humidity: 56%   Direction: 20°NNE
Pressure: 30.33"   Gusts: NA
Location:  33.55°N, 86.27°W
Report Text: KASN 281615Z AUTO 02004KT 10SM CLR 07/M02 A3033 RMK AO2 T00651017
Loading
Personal Weather Stations






























Interactive Weather Map New forecast layout! Learn more

10-Day Weather Forecast

Advertisements
Track Severe Weather on mobile